Time;durP1;ratioP1;P1;durP2;ratioP2;P2;SDS_P1;SDS_P2;PMS_P1;PMS_P2;Temp;Humidity;BMP_temperature;BMP_pressure;BME280_temperature;BME280_humidity;BME280_pressure;Samples;Min_cycle;Max_cycle;Signal;HPM_P1;HPM_P2
2022/01/23 00:01:06;;;;;;;13.32;7.68;;;5.90;99.90;;;;;;4846140;29;20533;-94
2022/01/23 00:03:32;;;;;;;12.27;7.10;;;5.90;99.90;;;;;;4845522;29;20509;-95
2022/01/23 00:05:58;;;;;;;12.30;8.10;;;5.90;99.90;;;;;;4845515;29;20033;-95
2022/01/23 00:08:25;;;;;;;12.63;8.30;;;5.90;99.90;;;;;;4845526;29;20060;-95
2022/01/23 00:10:52;;;;;;;15.38;8.23;;;5.90;99.90;;;;;;4877140;29;20029;-94
2022/01/23 00:18:32;;;;;;;11.98;6.95;;;5.90;99.90;;;;;;4861416;29;20070;-94
2022/01/23 00:20:57;;;;;;;13.60;8.40;;;5.90;99.90;;;;;;4845359;29;20033;-93
2022/01/23 00:31:39;;;;;;;10.52;6.55;;;5.80;99.90;;;;;;4866551;29;20147;-96
2022/01/23 00:34:06;;;;;;;11.90;7.55;;;5.80;99.90;;;;;;4915874;29;20044;-95
2022/01/23 00:36:31;;;;;;;11.60;6.53;;;5.80;99.90;;;;;;4909784;29;20126;-93
2022/01/23 00:38:58;;;;;;;12.23;7.63;;;5.80;99.90;;;;;;4909178;29;20197;-94
2022/01/23 00:41:24;;;;;;;11.80;7.63;;;5.80;99.90;;;;;;4915008;29;20048;-95
2022/01/23 00:43:52;;;;;;;10.85;6.93;;;5.80;99.90;;;;;;4914895;29;20024;-96
2022/01/23 00:49:13;;;;;;;8.68;5.78;;;5.80;99.90;;;;;;4932455;29;20042;-91
2022/01/23 00:51:38;;;;;;;10.70;6.45;;;5.80;99.90;;;;;;4926118;29;20490;-93
2022/01/23 00:54:08;;;;;;;8.93;6.10;;;5.80;99.90;;;;;;4909477;29;20044;-95
2022/01/23 00:56:34;;;;;;;8.52;5.20;;;5.80;99.90;;;;;;4909708;29;20489;-93
2022/01/23 00:59:00;;;;;;;8.18;5.55;;;5.80;99.90;;;;;;4912689;29;20474;-92
2022/01/23 01:01:26;;;;;;;7.32;4.70;;;5.80;99.90;;;;;;4909369;29;20035;-93
2022/01/23 01:03:52;;;;;;;6.70;4.40;;;5.80;99.90;;;;;;4908765;29;20024;-94
2022/01/23 01:06:18;;;;;;;6.53;4.40;;;5.70;99.90;;;;;;4906866;29;20028;-93
2022/01/23 01:08:47;;;;;;;6.97;4.50;;;5.80;99.90;;;;;;4909581;29;20024;-95
2022/01/23 01:11:53;;;;;;;6.18;4.78;;;5.80;99.90;;;;;;4908414;29;20030;-93
2022/01/23 01:35:16;;;;;;;6.03;3.50;;;5.80;99.90;;;;;;4926143;29;20177;-95
2022/01/23 01:37:42;;;;;;;5.35;3.42;;;5.70;99.90;;;;;;4909998;29;20048;-95
2022/01/23 01:40:09;;;;;;;5.05;3.20;;;5.80;99.90;;;;;;4928314;29;20050;-93
2022/01/23 01:42:34;;;;;;;4.20;2.42;;;5.80;99.90;;;;;;4911267;29;20024;-93
2022/01/23 01:45:00;;;;;;;2.47;2.10;;;5.80;99.90;;;;;;4909105;29;20119;-94
2022/01/23 01:47:26;;;;;;;2.13;1.80;;;5.70;99.90;;;;;;4908004;29;20020;-94
2022/01/23 01:49:52;;;;;;;2.92;1.60;;;5.70;99.90;;;;;;4910714;29;20054;-95
2022/01/23 01:52:18;;;;;;;3.33;2.47;;;5.70;99.90;;;;;;4909505;29;20032;-95
2022/01/23 01:54:43;;;;;;;2.50;1.90;;;5.70;99.90;;;;;;4907704;29;20020;-93
2022/01/23 01:57:11;;;;;;;2.17;1.67;;;5.70;99.90;;;;;;4907824;29;20039;-94
2022/01/23 02:00:11;;;;;;;5.40;2.35;;;5.70;99.90;;;;;;4910891;29;20035;-94
2022/01/23 02:08:25;;;;;;;2.90;2.03;;;5.70;99.90;;;;;;4928751;29;20042;-94
2022/01/23 02:10:57;;;;;;;4.05;2.30;;;5.70;99.90;;;;;;4914583;29;20031;-94
2022/01/23 02:51:41;;;;;;;3.47;2.10;;;5.80;99.90;;;;;;4928400;29;20062;-94
2022/01/23 02:56:46;;;;;;;3.53;2.30;;;5.70;99.90;;;;;;4928996;29;20039;-94
2022/01/23 02:59:27;;;;;;;;;;;5.70;99.90;;;;;;4914199;29;20447;-93
2022/01/23 03:04:26;;;;;;;5.85;2.95;;;5.70;99.90;;;;;;4939724;29;19911;-94
2022/01/23 03:07:11;;;;;;;5.70;3.00;;;5.70;99.90;;;;;;4927209;29;20019;-94
2022/01/23 03:28:37;;;;;;;7.18;3.63;;;5.70;99.90;;;;;;4930537;29;20059;-94
2022/01/23 03:33:31;;;;;;;8.43;4.68;;;5.70;99.90;;;;;;4928395;29;20040;-94
2022/01/23 03:35:57;;;;;;;9.13;4.88;;;5.70;99.90;;;;;;4915318;29;20016;-94
2022/01/23 03:38:22;;;;;;;9.27;4.93;;;5.70;99.90;;;;;;4914606;29;20035;-93
2022/01/23 03:40:48;;;;;;;8.32;5.43;;;5.70;99.90;;;;;;4912215;29;20052;-94
2022/01/23 03:43:15;;;;;;;12.60;5.85;;;5.70;99.90;;;;;;4910636;29;20478;-94
2022/01/23 03:50:45;;;;;;;10.00;6.45;;;5.80;99.90;;;;;;4928550;29;20054;-93
2022/01/23 03:53:11;;;;;;;9.70;5.82;;;5.70;99.90;;;;;;4910768;29;20036;-93
2022/01/23 03:55:37;;;;;;;10.55;5.85;;;5.70;99.90;;;;;;4911046;29;20024;-93
2022/01/23 03:58:03;;;;;;;7.07;4.32;;;5.70;99.90;;;;;;4911531;29;20480;-92
2022/01/23 04:00:29;;;;;;;8.50;4.78;;;5.70;99.90;;;;;;4912142;29;20486;-94
2022/01/23 04:02:55;;;;;;;6.93;3.97;;;5.70;99.90;;;;;;4910798;29;20039;-94
2022/01/23 04:05:21;;;;;;;6.68;4.18;;;5.70;99.90;;;;;;4911899;29;20094;-94
2022/01/23 04:07:47;;;;;;;5.85;3.58;;;5.70;99.90;;;;;;4913896;29;20362;-94
2022/01/23 04:10:15;;;;;;;4.90;3.22;;;5.70;99.90;;;;;;4911868;29;20019;-94
2022/01/23 04:15:22;;;;;;;5.95;3.42;;;5.70;99.90;;;;;;4946868;29;20028;-92
2022/01/23 04:20:46;;;;;;;6.20;3.30;;;5.70;99.90;;;;;;4926486;29;20066;-95
2022/01/23 04:45:22;;;;;;;3.28;2.10;;;5.70;99.90;;;;;;4816066;29;20094;-94
2022/01/23 05:04:18;;;;;;;9.00;5.13;;;5.70;99.90;;;;;;4803384;29;20034;-92
2022/01/23 05:06:47;;;;;;;9.45;5.03;;;5.70;99.90;;;;;;4813888;29;20166;-92
2022/01/23 05:09:17;;;;;;;11.02;6.35;;;5.70;99.90;;;;;;4812652;29;20038;-93
2022/01/23 05:11:49;;;;;;;11.73;6.85;;;5.70;99.90;;;;;;4812194;29;20038;-92
2022/01/23 05:14:18;;;;;;;12.23;7.57;;;5.70;99.90;;;;;;4814316;29;20034;-92
2022/01/23 05:16:44;;;;;;;10.45;7.35;;;5.60;99.90;;;;;;4906501;29;20036;-93
2022/01/23 05:19:10;;;;;;;17.42;8.38;;;5.70;99.90;;;;;;4918511;29;20035;-94
2022/01/23 05:24:03;;;;;;;12.88;8.25;;;5.70;99.90;;;;;;4936554;29;20024;-93
2022/01/23 05:26:29;;;;;;;16.10;9.32;;;5.70;99.90;;;;;;4922873;29;20110;-93
2022/01/23 05:28:55;;;;;;;14.90;9.15;;;5.70;99.90;;;;;;4921106;29;20051;-90
2022/01/23 05:31:21;;;;;;;14.25;9.20;;;5.80;99.90;;;;;;4919432;29;20366;-94
2022/01/23 05:33:46;;;;;;;15.77;10.07;;;5.80;99.90;;;;;;4919400;29;20036;-91
2022/01/23 05:36:12;;;;;;;18.80;10.75;;;5.80;99.90;;;;;;4919215;29;20015;-92
2022/01/23 05:38:38;;;;;;;16.40;10.90;;;5.80;99.90;;;;;;4919758;29;20052;-92
2022/01/23 05:41:03;;;;;;;16.48;10.68;;;5.80;99.90;;;;;;4919804;29;20508;-93
2022/01/23 05:43:29;;;;;;;18.05;10.50;;;5.80;99.90;;;;;;4915286;29;20497;-93
2022/01/23 05:45:55;;;;;;;18.48;10.95;;;5.80;99.90;;;;;;4919394;29;20025;-92
2022/01/23 05:48:21;;;;;;;22.35;11.43;;;5.80;99.90;;;;;;4920764;29;20061;-92
2022/01/23 05:50:48;;;;;;;18.38;11.40;;;5.80;99.90;;;;;;4926299;29;20020;-92
2022/01/23 05:53:13;;;;;;;18.15;11.35;;;5.80;99.90;;;;;;4925026;29;20040;-92
2022/01/23 05:55:39;;;;;;;17.08;9.57;;;5.80;99.90;;;;;;4929671;29;20039;-93
2022/01/23 05:58:05;;;;;;;18.35;10.77;;;5.80;99.90;;;;;;4918543;29;20040;-93
2022/01/23 06:00:31;;;;;;;20.13;11.77;;;5.80;99.90;;;;;;4918189;29;20055;-93
2022/01/23 06:02:57;;;;;;;13.32;8.32;;;5.80;99.90;;;;;;4913115;29;20067;-93
2022/01/23 06:05:22;;;;;;;21.35;12.75;;;5.80;99.90;;;;;;4911270;29;20020;-93
2022/01/23 06:07:50;;;;;;;15.38;8.75;;;5.80;99.90;;;;;;4911723;29;20438;-92
2022/01/23 06:10:23;;;;;;;19.02;12.07;;;5.70;99.90;;;;;;4913564;29;20103;-92
2022/01/23 06:12:49;;;;;;;23.70;12.45;;;5.70;99.90;;;;;;4913327;29;20031;-92
2022/01/23 06:15:16;;;;;;;17.85;11.02;;;5.70;99.90;;;;;;4915482;29;20059;-93
2022/01/23 06:17:42;;;;;;;19.13;10.95;;;5.70;99.90;;;;;;4915219;29;20138;-92
2022/01/23 06:20:10;;;;;;;21.30;11.73;;;5.70;99.90;;;;;;4915537;29;20056;-94
2022/01/23 06:22:36;;;;;;;20.08;10.50;;;5.70;99.90;;;;;;4916314;29;20019;-93
2022/01/23 06:25:08;;;;;;;18.55;9.95;;;5.70;99.90;;;;;;4917514;29;20031;-95
2022/01/23 06:27:34;;;;;;;18.00;10.38;;;5.70;99.90;;;;;;4916306;29;20027;-94
2022/01/23 06:30:00;;;;;;;14.80;8.95;;;5.60;99.90;;;;;;4931930;29;20020;-91
2022/01/23 06:32:26;;;;;;;14.23;8.98;;;5.60;99.90;;;;;;4914473;29;20039;-94
2022/01/23 06:34:54;;;;;;;15.38;9.00;;;5.60;99.90;;;;;;4924291;29;20564;-94
2022/01/23 06:37:20;;;;;;;14.35;8.93;;;5.60;99.90;;;;;;4912605;29;20023;-94
2022/01/23 06:39:46;;;;;;;15.35;9.68;;;5.60;99.90;;;;;;4920367;29;20016;-93
2022/01/23 06:42:11;;;;;;;14.02;8.57;;;5.60;99.90;;;;;;4926072;29;20036;-94
2022/01/23 06:44:38;;;;;;;12.70;8.80;;;5.60;99.90;;;;;;4930504;29;20056;-95
2022/01/23 06:47:04;;;;;;;14.70;8.18;;;5.60;99.90;;;;;;4913695;29;20019;-95
2022/01/23 06:49:30;;;;;;;14.55;7.80;;;5.60;99.90;;;;;;4914272;29;20028;-94
2022/01/23 06:51:56;;;;;;;15.30;8.35;;;5.60;99.90;;;;;;4915297;29;20036;-91
2022/01/23 06:54:22;;;;;;;15.85;9.15;;;5.60;99.90;;;;;;4915331;29;20024;-96
2022/01/23 06:56:48;;;;;;;12.77;8.45;;;5.60;99.90;;;;;;4915063;29;20027;-91
2022/01/23 06:59:14;;;;;;;12.77;8.23;;;5.60;99.90;;;;;;4914938;29;20028;-92
2022/01/23 07:01:40;;;;;;;13.45;7.90;;;5.50;99.90;;;;;;4921133;29;20027;-94
2022/01/23 07:04:06;;;;;;;13.23;7.65;;;5.60;99.90;;;;;;4919531;29;20123;-95
2022/01/23 07:06:32;;;;;;;11.68;7.97;;;5.60;99.90;;;;;;4926140;29;20119;-95
2022/01/23 07:08:58;;;;;;;14.75;7.82;;;5.60;99.90;;;;;;4922944;29;20024;-92
2022/01/23 07:11:24;;;;;;;12.00;7.88;;;5.50;99.90;;;;;;4920459;29;20494;-91
2022/01/23 07:13:49;;;;;;;12.05;7.75;;;5.50;99.90;;;;;;4917204;29;20114;-94
2022/01/23 07:16:16;;;;;;;11.93;7.68;;;5.50;99.90;;;;;;4921812;29;20020;-95
2022/01/23 07:18:42;;;;;;;12.38;8.23;;;5.60;99.90;;;;;;4921853;29;20019;-94
2022/01/23 07:21:08;;;;;;;15.13;7.75;;;5.60;99.90;;;;;;4921722;29;20587;-95
2022/01/23 07:23:34;;;;;;;13.95;8.68;;;5.60;99.90;;;;;;4922100;29;20032;-93
2022/01/23 07:25:59;;;;;;;14.05;8.90;;;5.50;99.90;;;;;;4921657;29;20028;-94
2022/01/23 07:28:36;;;;;;;13.75;8.75;;;5.50;99.90;;;;;;4921323;29;20020;-93
2022/01/23 07:31:04;;;;;;;12.65;7.40;;;5.50;99.90;;;;;;4917863;29;20470;-95
2022/01/23 07:33:33;;;;;;;13.07;8.07;;;5.50;99.90;;;;;;4918700;29;20032;-95
2022/01/23 07:35:59;;;;;;;13.60;7.28;;;5.50;99.90;;;;;;4918153;29;20541;-95
2022/01/23 07:38:25;;;;;;;11.85;7.65;;;5.60;99.90;;;;;;4921261;29;20477;-95
2022/01/23 07:40:51;;;;;;;10.25;7.22;;;5.50;99.90;;;;;;4919455;29;20043;-94
2022/01/23 07:43:17;;;;;;;11.00;7.47;;;5.50;99.90;;;;;;4936681;29;20035;-95
2022/01/23 07:45:43;;;;;;;13.32;7.75;;;5.50;99.90;;;;;;4934337;29;20027;-93
2022/01/23 07:48:09;;;;;;;10.25;6.88;;;5.50;99.90;;;;;;4925359;29;20031;-93
2022/01/23 07:50:36;;;;;;;11.93;7.90;;;5.50;99.90;;;;;;4920929;29;20111;-96
2022/01/23 07:53:02;;;;;;;10.30;7.38;;;5.50;99.90;;;;;;4921424;29;20114;-94
2022/01/23 07:55:28;;;;;;;11.35;7.93;;;5.50;99.90;;;;;;4925501;29;20036;-93
2022/01/23 07:57:59;;;;;;;11.25;6.70;;;5.50;99.90;;;;;;4930525;29;20027;-94
2022/01/23 08:00:25;;;;;;;9.90;6.80;;;5.50;99.90;;;;;;4919803;29;20047;-94
2022/01/23 08:02:50;;;;;;;10.38;7.05;;;5.50;99.90;;;;;;4920663;29;20028;-91
2022/01/23 08:05:16;;;;;;;10.27;6.70;;;5.50;99.90;;;;;;4920712;29;20043;-94
2022/01/23 08:07:42;;;;;;;39.85;8.77;;;5.50;99.90;;;;;;4923638;29;20379;-94
2022/01/23 08:10:09;;;;;;;16.23;8.77;;;5.50;99.90;;;;;;4920477;29;20478;-92
2022/01/23 08:12:35;;;;;;;17.05;8.60;;;5.50;99.90;;;;;;4917926;29;20024;-92
2022/01/23 08:15:03;;;;;;;20.80;8.55;;;5.50;99.90;;;;;;4918303;29;20035;-95
2022/01/23 08:17:29;;;;;;;16.48;9.20;;;5.50;99.90;;;;;;4916550;29;20038;-92
2022/01/23 08:20:01;;;;;;;27.98;9.73;;;5.60;99.90;;;;;;4919678;29;20425;-92
2022/01/23 08:22:29;;;;;;;13.35;8.70;;;5.60;99.90;;;;;;4925247;29;20087;-94
2022/01/23 08:24:56;;;;;;;16.20;9.15;;;5.60;99.90;;;;;;4921801;29;20024;-94
2022/01/23 08:27:23;;;;;;;18.02;10.13;;;5.60;99.90;;;;;;4920484;29;20103;-95
2022/01/23 08:29:49;;;;;;;15.73;9.13;;;5.70;99.90;;;;;;4923923;29;20028;-94
2022/01/23 08:32:18;;;;;;;15.32;9.40;;;5.70;99.90;;;;;;4920178;29;20493;-93
2022/01/23 08:34:45;;;;;;;14.65;8.68;;;5.70;99.90;;;;;;4914479;29;20029;-95
2022/01/23 08:37:11;;;;;;;13.35;8.15;;;5.70;99.90;;;;;;4910285;29;20553;-94
2022/01/23 08:39:38;;;;;;;15.48;8.55;;;5.70;99.90;;;;;;4916217;29;21167;-92
2022/01/23 08:42:06;;;;;;;13.50;8.77;;;5.70;99.90;;;;;;4911598;29;20096;-92
2022/01/23 08:44:33;;;;;;;12.70;8.57;;;5.70;99.90;;;;;;4908087;29;20028;-95
2022/01/23 08:46:59;;;;;;;14.95;8.70;;;5.70;99.90;;;;;;4914506;29;20024;-91
2022/01/23 08:49:26;;;;;;;13.25;8.85;;;5.70;99.90;;;;;;4915769;29;20594;-95
2022/01/23 08:51:54;;;;;;;16.70;9.18;;;5.60;99.90;;;;;;4917593;29;20751;-93
2022/01/23 08:54:20;;;;;;;17.88;9.52;;;5.60;99.90;;;;;;4908314;29;20032;-95
2022/01/23 08:56:48;;;;;;;15.23;9.55;;;5.60;99.90;;;;;;4908831;29;20473;-93
2022/01/23 08:59:14;;;;;;;14.90;9.45;;;5.60;99.90;;;;;;4910401;29;20493;-92
2022/01/23 09:01:40;;;;;;;15.80;11.00;;;5.60;99.90;;;;;;4904665;29;20028;-94
2022/01/23 09:04:07;;;;;;;20.30;10.57;;;5.60;99.90;;;;;;4912857;29;20028;-93
2022/01/23 09:06:33;;;;;;;18.88;10.85;;;5.60;99.90;;;;;;4909955;29;20095;-93
2022/01/23 09:09:00;;;;;;;15.77;10.27;;;5.50;99.90;;;;;;4911529;29;20482;-94
2022/01/23 09:12:40;;;;;;;16.55;10.68;;;5.60;99.90;;;;;;4910782;29;20024;-92
2022/01/23 09:14:14;;;;;;;20.40;11.65;;;5.60;99.90;;;;;;4913108;29;20050;-92
2022/01/23 09:16:43;;;;;;;19.17;11.82;;;5.50;99.90;;;;;;4914213;29;20038;-96
2022/01/23 09:19:12;;;;;;;22.58;14.05;;;5.50;99.90;;;;;;4914633;29;20031;-95
2022/01/23 09:21:39;;;;;;;19.63;13.35;;;5.50;99.90;;;;;;4923328;29;20055;-95
2022/01/23 09:24:05;;;;;;;22.85;14.27;;;5.50;99.90;;;;;;4924600;29;20024;-94
2022/01/23 09:26:34;;;;;;;24.02;14.50;;;5.50;99.90;;;;;;4915356;29;20027;-94
2022/01/23 09:29:12;;;;;;;22.80;13.88;;;5.50;99.90;;;;;;4907011;29;20020;-95
2022/01/23 09:32:12;;;;;;;23.20;13.93;;;5.50;99.90;;;;;;4915187;29;20027;-93
2022/01/23 09:34:32;;;;;;;24.05;14.63;;;5.50;99.90;;;;;;4930496;29;20036;-94
2022/01/23 09:37:01;;;;;;;31.23;18.30;;;5.50;99.90;;;;;;4930045;28;20045;-94
2022/01/23 09:39:28;;;;;;;30.90;17.73;;;5.50;99.90;;;;;;4934519;29;20043;-93
2022/01/23 09:42:11;;;;;;;28.98;17.17;;;5.40;99.90;;;;;;4925619;29;20119;-94
2022/01/23 09:44:46;;;;;;;28.45;17.42;;;5.50;99.90;;;;;;4921243;29;20020;-95
2022/01/23 09:47:14;;;;;;;27.67;16.63;;;5.50;99.90;;;;;;4927744;29;20457;-94
2022/01/23 09:49:42;;;;;;;30.45;19.33;;;5.50;99.90;;;;;;4933830;29;20040;-93
2022/01/23 09:52:10;;;;;;;31.38;18.58;;;5.50;99.90;;;;;;4931126;29;20028;-95
2022/01/23 09:54:41;;;;;;;31.55;18.90;;;5.50;99.90;;;;;;4932138;29;20036;-94
2022/01/23 09:57:09;;;;;;;33.88;20.17;;;5.50;99.90;;;;;;4922843;29;20091;-94
2022/01/23 09:59:35;;;;;;;37.10;19.88;;;5.50;99.90;;;;;;4929305;29;20032;-95
2022/01/23 10:02:03;;;;;;;32.72;19.70;;;5.50;99.90;;;;;;4926882;29;20027;-94
2022/01/23 10:04:30;;;;;;;36.63;20.52;;;5.40;99.90;;;;;;4918621;29;20036;-95
2022/01/23 10:06:57;;;;;;;35.78;20.70;;;5.40;99.90;;;;;;4917342;29;20039;-94
2022/01/23 10:09:25;;;;;;;37.13;21.20;;;5.40;99.90;;;;;;4918416;29;20024;-93
2022/01/23 10:11:51;;;;;;;38.78;22.05;;;5.40;99.90;;;;;;4923980;29;20501;-93
2022/01/23 10:14:19;;;;;;;31.33;17.35;;;5.50;99.90;;;;;;4916557;29;20028;-93
2022/01/23 10:16:50;;;;;;;31.17;17.98;;;5.40;99.90;;;;;;4916472;29;20020;-93
2022/01/23 10:19:17;;;;;;;29.70;17.20;;;5.40;99.90;;;;;;4917516;29;20028;-94
2022/01/23 10:21:44;;;;;;;24.35;13.68;;;5.40;99.90;;;;;;4919408;29;20586;-94
2022/01/23 10:24:12;;;;;;;25.65;15.00;;;5.40;99.90;;;;;;4926505;29;20038;-94
2022/01/23 10:26:48;;;;;;;20.20;12.15;;;5.40;99.90;;;;;;4917564;29;20044;-93
2022/01/23 10:29:26;;;;;;;24.17;12.60;;;5.30;99.90;;;;;;4924067;29;20028;-93
2022/01/23 10:32:18;;;;;;;23.25;11.88;;;5.30;99.90;;;;;;4928777;29;20027;-94
2022/01/23 10:34:56;;;;;;;17.42;9.27;;;5.30;99.90;;;;;;4920428;29;20028;-94
2022/01/23 10:37:35;;;;;;;16.00;9.93;;;5.30;99.90;;;;;;4926475;29;20047;-94
2022/01/23 10:40:07;;;;;;;20.10;10.82;;;5.30;99.90;;;;;;4923857;29;20090;-93
2022/01/23 10:47:55;;;;;;;16.70;9.63;;;5.30;99.90;;;;;;4932745;29;19917;-90
2022/01/23 10:50:26;;;;;;;17.20;10.10;;;5.20;99.90;;;;;;4917903;29;20028;-93
2022/01/23 10:52:53;;;;;;;14.90;9.27;;;5.20;99.90;;;;;;4921867;29;20035;-92
2022/01/23 10:55:28;;;;;;;18.70;10.15;;;5.20;99.90;;;;;;4922632;29;20039;-92
2022/01/23 10:58:00;;;;;;;20.08;10.68;;;5.20;99.90;;;;;;4920067;29;20045;-94
2022/01/23 11:00:54;;;;;;;18.77;10.32;;;5.30;99.90;;;;;;4918514;29;20021;-93
2022/01/23 11:03:22;;;;;;;19.42;11.52;;;5.30;99.90;;;;;;4915112;29;20130;-93
2022/01/23 11:05:50;;;;;;;15.27;10.00;;;5.30;99.90;;;;;;4918579;29;20102;-94
2022/01/23 11:08:31;;;;;;;16.80;9.90;;;5.30;99.90;;;;;;4904002;29;20059;-92
2022/01/23 11:11:00;;;;;;;16.85;10.32;;;5.30;99.90;;;;;;4915106;29;20035;-93
2022/01/23 11:19:21;;;;;;;15.07;9.00;;;5.30;99.90;;;;;;4936629;29;20103;-94
2022/01/23 11:21:48;;;;;;;19.88;11.00;;;5.20;99.90;;;;;;4912904;29;20026;-93
2022/01/23 11:24:14;;;;;;;20.90;10.65;;;5.20;99.90;;;;;;4932042;29;20016;-93
2022/01/23 11:26:41;;;;;;;18.63;10.75;;;5.20;99.90;;;;;;4928391;29;20047;-94
2022/01/23 11:29:12;;;;;;;18.92;10.30;;;5.20;99.90;;;;;;4924002;29;20039;-92
2022/01/23 11:31:40;;;;;;;18.00;10.07;;;5.20;99.90;;;;;;4922623;29;20066;-92
2022/01/23 11:34:07;;;;;;;21.25;10.27;;;5.20;99.90;;;;;;4922188;29;20060;-92
2022/01/23 11:36:35;;;;;;;20.27;11.02;;;5.20;99.90;;;;;;4922011;29;20028;-93
2022/01/23 11:39:12;;;;;;;19.75;11.50;;;5.20;99.90;;;;;;4921616;29;20031;-95
2022/01/23 11:53:46;;;;;;;16.50;9.27;;;5.20;99.90;;;;;;4895998;29;20051;-95
2022/01/23 11:56:35;;;;;;;17.27;9.88;;;5.10;99.90;;;;;;4917126;29;20030;-96
2022/01/23 11:59:10;;;;;;;18.10;10.45;;;5.10;99.90;;;;;;4918187;29;20024;-93
2022/01/23 12:01:41;;;;;;;20.65;10.50;;;5.20;99.90;;;;;;4922824;29;20059;-94
2022/01/23 12:04:21;;;;;;;17.30;10.45;;;5.10;99.90;;;;;;4926653;29;20031;-95
2022/01/23 12:07:15;;;;;;;16.98;10.20;;;5.10;99.90;;;;;;4937467;29;20051;-94
2022/01/23 12:10:02;;;;;;;18.17;10.45;;;5.10;99.90;;;;;;4918551;29;20032;-94
2022/01/23 12:12:38;;;;;;;26.27;11.02;;;5.10;99.90;;;;;;4932349;29;20031;-95
2022/01/23 12:18:21;;;;;;;17.88;9.70;;;5.20;99.90;;;;;;4946945;29;20492;-94
2022/01/23 12:20:50;;;;;;;17.75;9.32;;;5.10;99.90;;;;;;4932228;29;20047;-94
2022/01/23 12:23:24;;;;;;;16.88;9.48;;;5.10;99.90;;;;;;4931233;29;20023;-95
2022/01/23 12:25:52;;;;;;;17.85;8.80;;;5.20;99.90;;;;;;4931231;29;20043;-95
2022/01/23 12:28:25;;;;;;;18.45;9.00;;;5.20;99.90;;;;;;4929631;29;20028;-93
2022/01/23 12:31:20;;;;;;;14.02;8.20;;;5.20;99.90;;;;;;5100086;27;20413;-95
2022/01/23 12:33:52;;;;;;;16.33;9.52;;;5.20;99.90;;;;;;5097663;28;20033;-94
2022/01/23 12:36:23;;;;;;;19.00;9.85;;;5.10;99.90;;;;;;5114949;28;20168;-95
2022/01/23 12:39:09;;;;;;;;;;;5.00;99.90;;;;;;5104585;28;20031;-94
2022/01/23 12:41:39;;;;;;;13.35;8.10;;;5.10;99.90;;;;;;5118484;28;19954;-93
2022/01/23 12:44:09;;;;;;;;;;;5.10;99.90;;;;;;5100736;28;20027;-95
2022/01/23 12:46:51;;;;;;;14.07;7.70;;;5.10;99.90;;;;;;5099723;28;20382;-95
2022/01/23 12:49:33;;;;;;;14.95;8.18;;;5.20;99.90;;;;;;5103176;28;20102;-96
2022/01/23 12:55:05;;;;;;;11.80;7.22;;;5.20;99.90;;;;;;6053726;23;20021;-94
2022/01/23 12:57:42;;;;;;;15.30;7.55;;;5.20;99.90;;;;;;5056397;28;20455;-94
2022/01/23 13:00:53;;;;;;;11.85;7.18;;;5.20;99.90;;;;;;5044763;28;20041;-94
2022/01/23 13:03:23;;;;;;;13.63;7.22;;;5.10;99.90;;;;;;5045307;28;20033;-94
2022/01/23 13:05:49;;;;;;;13.40;7.97;;;5.00;99.90;;;;;;5050738;28;20035;-94
2022/01/23 13:08:26;;;;;;;13.05;7.72;;;4.90;99.90;;;;;;5039902;28;20089;-94
2022/01/23 13:18:46;;;;;;;18.48;9.50;;;5.00;99.90;;;;;;5064427;28;20013;-95
2022/01/23 13:32:08;;;;;;;13.70;7.68;;;4.90;99.90;;;;;;5047369;28;20021;-95
2022/01/23 13:35:08;;;;;;;14.00;7.88;;;4.90;99.90;;;;;;5040113;28;20025;-94
2022/01/23 13:37:36;;;;;;;17.13;8.03;;;4.90;99.90;;;;;;5031591;28;20038;-96
2022/01/23 13:40:26;;;;;;;15.45;8.02;;;5.00;99.90;;;;;;5031682;28;20304;-94
2022/01/23 13:54:17;;;;;;;17.80;9.85;;;5.10;99.90;;;;;;5031123;28;20045;-94
2022/01/23 14:02:50;;;;;;;19.30;10.13;;;5.20;99.90;;;;;;4958234;29;20019;-94
2022/01/23 14:05:22;;;;;;;16.35;9.43;;;5.30;99.90;;;;;;4942505;29;20592;-94
2022/01/23 14:07:51;;;;;;;22.67;11.15;;;5.40;99.90;;;;;;4958491;29;20039;-93
2022/01/23 14:10:22;;;;;;;20.10;11.05;;;5.40;99.90;;;;;;4957994;29;20073;-94
2022/01/23 14:12:49;;;;;;;24.92;11.10;;;5.40;99.90;;;;;;4958075;29;20022;-94
2022/01/23 14:15:28;;;;;;;18.88;11.13;;;5.40;99.90;;;;;;4961891;29;20140;-93
2022/01/23 14:18:02;;;;;;;17.60;9.98;;;5.30;99.90;;;;;;4962714;29;20126;-94
2022/01/23 14:20:34;;;;;;;23.48;10.73;;;5.30;99.90;;;;;;4958145;29;20422;-95
2022/01/23 14:23:12;;;;;;;13.35;8.50;;;5.20;99.90;;;;;;4958142;29;20023;-92
2022/01/23 14:25:48;;;;;;;17.25;9.27;;;5.20;99.90;;;;;;4958352;29;20038;-94
2022/01/23 14:28:17;;;;;;;15.80;8.38;;;5.10;99.90;;;;;;4957712;29;20126;-93
2022/01/23 14:30:46;;;;;;;13.35;8.45;;;5.10;99.90;;;;;;4957119;29;20075;-95
2022/01/23 14:33:23;;;;;;;13.00;7.85;;;5.10;99.90;;;;;;4980072;28;20029;-95
2022/01/23 14:35:50;;;;;;;13.13;8.40;;;4.90;99.90;;;;;;5035371;28;20033;-92
2022/01/23 14:38:24;;;;;;;10.70;7.13;;;4.90;99.90;;;;;;5019856;28;20029;-94
2022/01/23 14:40:59;;;;;;;12.75;7.40;;;4.80;99.90;;;;;;5023866;28;20089;-95
2022/01/23 14:43:34;;;;;;;12.45;7.38;;;4.70;99.90;;;;;;5021613;28;20033;-94
2022/01/23 14:46:03;;;;;;;11.70;6.35;;;4.70;99.90;;;;;;5028130;28;20104;-94
2022/01/23 14:48:29;;;;;;;15.55;7.70;;;4.60;99.90;;;;;;5029519;28;20028;-93
2022/01/23 14:50:56;;;;;;;17.48;10.45;;;4.60;99.90;;;;;;5023411;28;20133;-96
2022/01/23 14:53:24;;;;;;;15.25;8.38;;;4.70;99.90;;;;;;5030338;28;20017;-93
2022/01/23 14:56:01;;;;;;;17.52;9.48;;;4.70;99.90;;;;;;5033916;28;20049;-93
2022/01/23 14:58:30;;;;;;;14.88;8.82;;;4.70;99.90;;;;;;5028483;28;20021;-94
2022/01/23 15:00:57;;;;;;;12.25;7.68;;;4.70;99.90;;;;;;5029372;28;20076;-96
2022/01/23 15:03:25;;;;;;;14.63;8.40;;;4.80;99.90;;;;;;5031766;28;20025;-96
2022/01/23 15:05:51;;;;;;;16.20;8.90;;;4.70;99.90;;;;;;5031711;28;20025;-94
2022/01/23 15:08:21;;;;;;;15.35;8.55;;;4.70;99.90;;;;;;5039383;28;20017;-96
2022/01/23 15:10:48;;;;;;;13.77;8.00;;;4.70;99.90;;;;;;5021672;28;20237;-95
2022/01/23 15:13:14;;;;;;;14.57;7.90;;;4.70;99.90;;;;;;5028092;28;20045;-93
2022/01/23 15:15:41;;;;;;;16.80;8.93;;;4.70;99.90;;;;;;5028656;28;20026;-92
2022/01/23 15:18:07;;;;;;;14.15;8.43;;;4.60;99.90;;;;;;5020838;28;20021;-95
2022/01/23 15:20:35;;;;;;;14.38;8.18;;;4.60;99.90;;;;;;5021697;28;20031;-93
2022/01/23 15:23:02;;;;;;;16.38;9.18;;;4.60;99.90;;;;;;5040868;28;20033;-94
2022/01/23 15:25:28;;;;;;;19.83;10.63;;;4.50;99.90;;;;;;5037734;28;20021;-93
2022/01/23 15:27:55;;;;;;;14.05;8.48;;;4.50;99.90;;;;;;5040371;28;20029;-93
2022/01/23 15:30:23;;;;;;;14.57;8.90;;;4.50;99.90;;;;;;5039260;28;20075;-93
2022/01/23 15:32:51;;;;;;;17.92;9.20;;;4.50;99.90;;;;;;5042232;28;20109;-92
2022/01/23 15:35:18;;;;;;;14.77;8.35;;;4.40;99.90;;;;;;5025943;28;20032;-94
2022/01/23 15:37:44;;;;;;;13.45;8.88;;;4.40;99.90;;;;;;5020137;28;20021;-93
2022/01/23 15:40:11;;;;;;;16.33;9.25;;;4.50;99.90;;;;;;5039160;28;20040;-93
2022/01/23 15:42:38;;;;;;;13.65;8.13;;;4.50;99.90;;;;;;5036130;28;20021;-94
2022/01/23 15:45:08;;;;;;;13.45;8.18;;;4.50;99.90;;;;;;5031417;28;20093;-94
2022/01/23 15:47:37;;;;;;;12.80;7.60;;;4.50;99.90;;;;;;5042556;28;20033;-93
2022/01/23 15:50:05;;;;;;;15.27;9.30;;;4.40;99.90;;;;;;5028428;28;20109;-95
2022/01/23 15:52:30;;;;;;;16.63;9.45;;;4.40;99.90;;;;;;5028649;28;20017;-94
2022/01/23 15:54:56;;;;;;;13.98;9.25;;;4.40;99.90;;;;;;5025256;28;20103;-94
2022/01/23 15:57:22;;;;;;;14.57;8.13;;;4.40;99.90;;;;;;5027699;28;20021;-95
2022/01/23 15:59:48;;;;;;;20.30;10.85;;;4.40;99.90;;;;;;5024293;28;20136;-93
2022/01/23 16:02:14;;;;;;;16.95;10.18;;;4.40;99.90;;;;;;5039320;28;20017;-91
2022/01/23 16:04:40;;;;;;;19.33;9.77;;;4.40;99.90;;;;;;5036403;28;20044;-93
2022/01/23 16:07:12;;;;;;;14.68;9.55;;;4.40;99.90;;;;;;5037020;28;20017;-92
2022/01/23 16:09:38;;;;;;;16.23;9.63;;;4.30;99.90;;;;;;5029561;28;20033;-94
2022/01/23 16:12:04;;;;;;;15.95;10.18;;;4.20;99.90;;;;;;5020381;28;20116;-92
2022/01/23 16:14:30;;;;;;;17.02;9.57;;;4.20;99.90;;;;;;5032101;28;20048;-91
2022/01/23 16:16:56;;;;;;;14.65;9.82;;;4.20;99.90;;;;;;5045367;28;20383;-94
2022/01/23 16:19:22;;;;;;;14.73;10.07;;;4.20;99.90;;;;;;5027481;28;20043;-91
2022/01/23 16:21:51;;;;;;;16.88;9.88;;;4.20;99.90;;;;;;5023329;28;20025;-93
2022/01/23 16:24:17;;;;;;;15.27;9.32;;;4.20;99.90;;;;;;5027716;28;20025;-95
2022/01/23 16:26:43;;;;;;;18.20;10.63;;;4.20;99.90;;;;;;5031144;28;20444;-93
2022/01/23 16:29:13;;;;;;;16.58;10.20;;;4.30;99.90;;;;;;5024031;28;20032;-95
2022/01/23 16:31:39;;;;;;;17.30;9.98;;;4.30;99.90;;;;;;5025846;28;20033;-94
2022/01/23 16:34:07;;;;;;;17.55;11.05;;;4.30;99.90;;;;;;5028882;28;20400;-93
2022/01/23 16:36:38;;;;;;;18.50;12.15;;;4.40;99.90;;;;;;5028033;28;20037;-93
2022/01/23 16:39:05;;;;;;;15.10;10.07;;;4.40;99.90;;;;;;5016994;28;20025;-92
2022/01/23 16:41:31;;;;;;;15.93;9.95;;;4.30;99.90;;;;;;5017288;28;20032;-93